sensor_id;sensor_type;location;lat;lon;timestamp;pressure;altitude;pressure_sealevel;temperature;humidity
6899;BME280;3488;42.616;23.350;2023-03-16T00:01:50;62231.72;;;2.23;100.00
6899;BME280;3488;42.616;23.350;2023-03-16T00:04:18;62231.34;;;2.27;100.00
6899;BME280;3488;42.616;23.350;2023-03-16T00:06:46;62230.25;;;2.24;100.00
6899;BME280;3488;42.616;23.350;2023-03-16T00:09:13;62222.66;;;2.21;100.00
6899;BME280;3488;42.616;23.350;2023-03-16T00:11:40;62226.06;;;2.17;100.00
6899;BME280;3488;42.616;23.350;2023-03-16T00:14:07;62219.91;;;2.11;100.00
6899;BME280;3488;42.616;23.350;2023-03-16T00:16:35;62204.75;;;2.06;100.00
6899;BME280;3488;42.616;23.350;2023-03-16T00:19:02;62207.16;;;2.01;100.00
6899;BME280;3488;42.616;23.350;2023-03-16T00:21:30;62207.16;;;2.01;100.00
6899;BME280;3488;42.616;23.350;2023-03-16T00:24:00;62196.94;;;1.94;100.00
6899;BME280;3488;42.616;23.350;2023-03-16T00:26:28;62196.88;;;1.91;100.00
6899;BME280;3488;42.616;23.350;2023-03-16T00:28:56;62209.09;;;1.98;100.00
6899;BME280;3488;42.616;23.350;2023-03-16T00:31:23;62198.53;;;1.98;100.00
6899;BME280;3488;42.616;23.350;2023-03-16T00:33:50;62187.75;;;1.87;100.00
6899;BME280;3488;42.616;23.350;2023-03-16T00:36:17;62181.41;;;1.74;100.00
6899;BME280;3488;42.616;23.350;2023-03-16T00:38:44;62174.88;;;1.72;100.00
6899;BME280;3488;42.616;23.350;2023-03-16T00:41:14;62181.53;;;1.79;100.00
6899;BME280;3488;42.616;23.350;2023-03-16T00:43:42;62169.63;;;1.62;100.00
6899;BME280;3488;42.616;23.350;2023-03-16T00:46:11;62172.75;;;1.68;100.00
6899;BME280;3488;42.616;23.350;2023-03-16T00:48:41;62175.69;;;1.66;100.00
6899;BME280;3488;42.616;23.350;2023-03-16T00:51:10;62174.28;;;1.69;100.00
6899;BME280;3488;42.616;23.350;2023-03-16T00:53:40;62170.19;;;1.65;100.00
6899;BME280;3488;42.616;23.350;2023-03-16T00:56:08;62169.22;;;1.67;100.00
6899;BME280;3488;42.616;23.350;2023-03-16T00:58:38;62167.13;;;1.62;100.00
6899;BME280;3488;42.616;23.350;2023-03-16T01:01:09;62160.31;;;1.51;100.00
6899;BME280;3488;42.616;23.350;2023-03-16T01:03:36;62154.84;;;1.53;100.00
6899;BME280;3488;42.616;23.350;2023-03-16T01:06:04;62156.91;;;1.55;100.00
6899;BME280;3488;42.616;23.350;2023-03-16T01:08:31;62161.41;;;1.54;100.00
6899;BME280;3488;42.616;23.350;2023-03-16T01:11:01;62159.41;;;1.55;100.00
6899;BME280;3488;42.616;23.350;2023-03-16T01:13:29;62165.63;;;1.63;100.00
6899;BME280;3488;42.616;23.350;2023-03-16T01:15:58;62158.38;;;1.54;100.00
6899;BME280;3488;42.616;23.350;2023-03-16T01:18:26;62156.91;;;1.55;100.00
6899;BME280;3488;42.616;23.350;2023-03-16T01:20:53;62159.94;;;1.55;100.00
6899;BME280;3488;42.616;23.350;2023-03-16T01:23:20;62141.41;;;1.35;100.00
6899;BME280;3488;42.616;23.350;2023-03-16T01:25:47;62138.94;;;1.37;100.00
6899;BME280;3488;42.616;23.350;2023-03-16T01:28:19;62147.66;;;1.46;100.00
6899;BME280;3488;42.616;23.350;2023-03-16T01:30:46;62155.28;;;1.51;100.00
6899;BME280;3488;42.616;23.350;2023-03-16T01:33:14;62134.34;;;1.33;100.00
6899;BME280;3488;42.616;23.350;2023-03-16T01:35:41;62145.59;;;1.44;100.00
6899;BME280;3488;42.616;23.350;2023-03-16T01:38:11;62148.00;;;1.39;100.00
6899;BME280;3488;42.616;23.350;2023-03-16T01:40:38;62138.53;;;1.42;100.00
6899;BME280;3488;42.616;23.350;2023-03-16T01:43:06;62134.81;;;1.33;100.00
6899;BME280;3488;42.616;23.350;2023-03-16T01:46:14;62123.03;;;1.22;100.00
6899;BME280;3488;42.616;23.350;2023-03-16T01:48:50;62124.53;;;1.21;100.00
6899;BME280;3488;42.616;23.350;2023-03-16T01:51:22;62121.44;;;1.17;100.00
6899;BME280;3488;42.616;23.350;2023-03-16T01:53:53;62110.72;;;1.09;100.00
6899;BME280;3488;42.616;23.350;2023-03-16T01:56:25;62114.72;;;1.08;100.00
6899;BME280;3488;42.616;23.350;2023-03-16T01:58:54;62110.69;;;1.07;100.00
6899;BME280;3488;42.616;23.350;2023-03-16T02:01:24;62100.47;;;0.99;100.00
6899;BME280;3488;42.616;23.350;2023-03-16T02:03:59;62109.19;;;1.08;100.00
6899;BME280;3488;42.616;23.350;2023-03-16T02:06:28;62103.38;;;0.95;100.00
6899;BME280;3488;42.616;23.350;2023-03-16T02:08:57;62099.50;;;1.01;100.00
6899;BME280;3488;42.616;23.350;2023-03-16T02:11:25;62105.03;;;1.01;100.00
6899;BME280;3488;42.616;23.350;2023-03-16T02:13:54;62104.06;;;1.03;100.00
6899;BME280;3488;42.616;23.350;2023-03-16T02:16:22;62110.72;;;1.09;100.00
6899;BME280;3488;42.616;23.350;2023-03-16T02:18:49;62118.31;;;1.12;100.00
6899;BME280;3488;42.616;23.350;2023-03-16T02:21:24;62117.84;;;1.14;100.00
6899;BME280;3488;42.616;23.350;2023-03-16T02:23:58;62115.84;;;1.14;100.00
6899;BME280;3488;42.616;23.350;2023-03-16T02:26:29;62111.25;;;1.10;100.00
6899;BME280;3488;42.616;23.350;2023-03-16T02:29:10;62119.97;;;1.18;100.00
6899;BME280;3488;42.616;23.350;2023-03-16T02:31:41;62120.47;;;1.19;100.00
6899;BME280;3488;42.616;23.350;2023-03-16T02:34:12;62117.84;;;1.14;100.00
6899;BME280;3488;42.616;23.350;2023-03-16T02:36:41;62110.28;;;1.11;100.00
6899;BME280;3488;42.616;23.350;2023-03-16T02:39:10;62115.84;;;1.14;100.00
6899;BME280;3488;42.616;23.350;2023-03-16T02:41:37;62117.84;;;1.14;100.00
6899;BME280;3488;42.616;23.350;2023-03-16T02:44:09;62115.41;;;1.16;100.00
6899;BME280;3488;42.616;23.350;2023-03-16T02:46:41;62111.25;;;1.10;100.00
6899;BME280;3488;42.616;23.350;2023-03-16T02:49:14;62103.03;;;1.02;100.00
6899;BME280;3488;42.616;23.350;2023-03-16T02:51:45;62112.31;;;1.13;100.00
6899;BME280;3488;42.616;23.350;2023-03-16T02:54:12;62111.19;;;1.07;100.00
6899;BME280;3488;42.616;23.350;2023-03-16T02:56:39;62105.53;;;1.02;100.00
6899;BME280;3488;42.616;23.350;2023-03-16T02:59:06;62104.00;;;1.00;100.00
6899;BME280;3488;42.616;23.350;2023-03-16T03:01:34;62097.97;;;0.99;100.00
6899;BME280;3488;42.616;23.350;2023-03-16T03:04:03;62088.16;;;0.87;100.00
6899;BME280;3488;42.616;23.350;2023-03-16T03:06:30;62094.25;;;0.91;100.00
6899;BME280;3488;42.616;23.350;2023-03-16T03:08:57;62094.81;;;0.94;100.00
6899;BME280;3488;42.616;23.350;2023-03-16T03:11:24;62079.44;;;0.79;100.00
6899;BME280;3488;42.616;23.350;2023-03-16T03:13:53;62088.03;;;0.82;100.00
6899;BME280;3488;42.616;23.350;2023-03-16T03:16:20;62080.97;;;0.80;100.00
6899;BME280;3488;42.616;23.350;2023-03-16T03:18:46;62080.47;;;0.80;100.00
6899;BME280;3488;42.616;23.350;2023-03-16T03:21:15;62092.72;;;0.89;100.00
6899;BME280;3488;42.616;23.350;2023-03-16T03:23:42;62085.03;;;0.82;100.00
6899;BME280;3488;42.616;23.350;2023-03-16T03:26:11;62093.81;;;0.93;100.00
6899;BME280;3488;42.616;23.350;2023-03-16T03:28:39;62092.78;;;0.92;100.00
6899;BME280;3488;42.616;23.350;2023-03-16T03:31:06;62099.38;;;0.96;100.00
6899;BME280;3488;42.616;23.350;2023-03-16T03:33:33;62090.72;;;0.90;100.00
6899;BME280;3488;42.616;23.350;2023-03-16T03:36:00;62095.78;;;0.92;100.00
6899;BME280;3488;42.616;23.350;2023-03-16T03:38:28;62079.56;;;0.84;100.00
6899;BME280;3488;42.616;23.350;2023-03-16T03:40:56;62086.56;;;0.83;100.00
6899;BME280;3488;42.616;23.350;2023-03-16T03:43:25;62080.00;;;0.82;100.00
6899;BME280;3488;42.616;23.350;2023-03-16T03:45:54;62074.88;;;0.77;100.00
6899;BME280;3488;42.616;23.350;2023-03-16T03:48:22;62082.97;;;0.80;100.00
6899;BME280;3488;42.616;23.350;2023-03-16T03:50:49;62086.56;;;0.83;100.00
6899;BME280;3488;42.616;23.350;2023-03-16T03:53:16;62088.16;;;0.87;100.00
6899;BME280;3488;42.616;23.350;2023-03-16T03:55:45;62087.06;;;0.84;100.00
6899;BME280;3488;42.616;23.350;2023-03-16T03:58:12;62090.22;;;0.89;100.00
6899;BME280;3488;42.616;23.350;2023-03-16T04:00:39;62097.72;;;0.89;100.00
6899;BME280;3488;42.616;23.350;2023-03-16T04:03:06;62085.09;;;0.84;100.00
6899;BME280;3488;42.616;23.350;2023-03-16T04:05:34;62079.97;;;0.79;100.00
6899;BME280;3488;42.616;23.350;2023-03-16T04:08:00;62081.50;;;0.81;100.00
6899;BME280;3488;42.616;23.350;2023-03-16T04:10:29;62087.06;;;0.84;100.00
6899;BME280;3488;42.616;23.350;2023-03-16T04:12:57;62087.66;;;0.87;100.00
6899;BME280;3488;42.616;23.350;2023-03-16T04:15:25;62090.66;;;0.87;100.00
6899;BME280;3488;42.616;23.350;2023-03-16T04:17:52;62084.63;;;0.86;100.00
6899;BME280;3488;42.616;23.350;2023-03-16T04:20:19;62093.75;;;0.90;100.00
6899;BME280;3488;42.616;23.350;2023-03-16T04:22:47;62090.22;;;0.89;100.00
6899;BME280;3488;42.616;23.350;2023-03-16T04:25:23;62091.13;;;0.85;100.00
6899;BME280;3488;42.616;23.350;2023-03-16T04:27:50;62080.91;;;0.78;100.00
6899;BME280;3488;42.616;23.350;2023-03-16T04:30:21;62077.41;;;0.77;100.00
6899;BME280;3488;42.616;23.350;2023-03-16T04:32:49;62073.34;;;0.75;100.00
6899;BME280;3488;42.616;23.350;2023-03-16T04:35:17;62082.47;;;0.79;100.00
6899;BME280;3488;42.616;23.350;2023-03-16T04:37:44;62082.59;;;0.84;100.00
6899;BME280;3488;42.616;23.350;2023-03-16T04:40:11;62082.00;;;0.81;100.00
6899;BME280;3488;42.616;23.350;2023-03-16T04:42:42;62082.00;;;0.81;100.00
6899;BME280;3488;42.616;23.350;2023-03-16T04:45:09;62080.41;;;0.77;100.00
6899;BME280;3488;42.616;23.350;2023-03-16T04:47:38;62066.56;;;0.64;100.00
6899;BME280;3488;42.616;23.350;2023-03-16T04:50:07;62084.00;;;0.81;100.00
6899;BME280;3488;42.616;23.350;2023-03-16T04:52:35;62086.50;;;0.81;100.00
6899;BME280;3488;42.616;23.350;2023-03-16T04:55:02;62090.66;;;0.87;100.00
6899;BME280;3488;42.616;23.350;2023-03-16T04:57:30;62092.22;;;0.89;100.00
6899;BME280;3488;42.616;23.350;2023-03-16T04:59:57;62084.50;;;0.81;100.00
6899;BME280;3488;42.616;23.350;2023-03-16T05:02:24;62087.66;;;0.87;100.00
6899;BME280;3488;42.616;23.350;2023-03-16T05:04:52;62092.31;;;0.94;100.00
6899;BME280;3488;42.616;23.350;2023-03-16T05:07:19;62096.25;;;0.90;100.00
6899;BME280;3488;42.616;23.350;2023-03-16T05:09:46;62094.78;;;0.91;100.00
6899;BME280;3488;42.616;23.350;2023-03-16T05:12:13;62092.28;;;0.91;100.00
6899;BME280;3488;42.616;23.350;2023-03-16T05:14:40;62089.75;;;0.91;100.00
6899;BME280;3488;42.616;23.350;2023-03-16T05:17:07;62105.47;;;0.99;100.00
6899;BME280;3488;42.616;23.350;2023-03-16T05:19:34;62107.09;;;1.03;100.00
6899;BME280;3488;42.616;23.350;2023-03-16T05:22:03;62110.22;;;1.09;100.00
6899;BME280;3488;42.616;23.350;2023-03-16T05:24:31;62106.63;;;1.05;100.00
6899;BME280;3488;42.616;23.350;2023-03-16T05:26:58;62111.75;;;1.10;100.00
6899;BME280;3488;42.616;23.350;2023-03-16T05:29:28;62113.28;;;1.12;100.00
6899;BME280;3488;42.616;23.350;2023-03-16T05:31:55;62115.34;;;1.14;100.00
6899;BME280;3488;42.616;23.350;2023-03-16T05:34:22;62098.97;;;1.00;100.00
6899;BME280;3488;42.616;23.350;2023-03-16T05:36:49;62099.94;;;0.99;100.00
6899;BME280;3488;42.616;23.350;2023-03-16T05:39:18;62104.56;;;1.03;100.00
6899;BME280;3488;42.616;23.350;2023-03-16T05:41:44;62092.78;;;0.92;100.00
6899;BME280;3488;42.616;23.350;2023-03-16T05:44:11;62087.72;;;0.89;100.00
6899;BME280;3488;42.616;23.350;2023-03-16T05:46:38;62100.84;;;0.95;100.00
6899;BME280;3488;42.616;23.350;2023-03-16T05:49:05;62095.22;;;0.89;100.00
6899;BME280;3488;42.616;23.350;2023-03-16T05:51:32;62096.81;;;0.93;100.00
6899;BME280;3488;42.616;23.350;2023-03-16T05:53:59;62095.34;;;0.94;100.00
6899;BME280;3488;42.616;23.350;2023-03-16T05:56:27;62102.47;;;0.99;100.00
6899;BME280;3488;42.616;23.350;2023-03-16T05:58:55;62101.50;;;1.00;100.00
6899;BME280;3488;42.616;23.350;2023-03-16T06:01:22;62104.44;;;0.98;100.00
6899;BME280;3488;42.616;23.350;2023-03-16T06:03:50;62101.94;;;0.98;100.00
6899;BME280;3488;42.616;23.350;2023-03-16T06:06:17;62097.34;;;0.94;100.00
6899;BME280;3488;42.616;23.350;2023-03-16T06:08:45;62098.34;;;0.95;100.00
6899;BME280;3488;42.616;23.350;2023-03-16T06:11:12;62093.81;;;0.93;100.00
6899;BME280;3488;42.616;23.350;2023-03-16T06:13:41;62095.28;;;0.92;100.00
6899;BME280;3488;42.616;23.350;2023-03-16T06:16:08;62097.41;;;0.96;100.00
6899;BME280;3488;42.616;23.350;2023-03-16T06:18:36;62094.25;;;0.91;100.00
6899;BME280;3488;42.616;23.350;2023-03-16T06:21:04;62097.41;;;0.96;100.00
6899;BME280;3488;42.616;23.350;2023-03-16T06:23:31;62097.91;;;0.97;100.00
6899;BME280;3488;42.616;23.350;2023-03-16T06:25:59;62101.50;;;1.00;100.00
6899;BME280;3488;42.616;23.350;2023-03-16T06:28:26;62108.56;;;1.02;100.00
6899;BME280;3488;42.616;23.350;2023-03-16T06:30:55;62102.41;;;0.96;100.00
6899;BME280;3488;42.616;23.350;2023-03-16T06:33:23;62112.59;;;1.04;100.00
6899;BME280;3488;42.616;23.350;2023-03-16T06:35:50;62115.16;;;1.06;100.00
6899;BME280;3488;42.616;23.350;2023-03-16T06:38:18;62119.66;;;1.06;100.00
6899;BME280;3488;42.616;23.350;2023-03-16T06:40:45;62111.69;;;1.08;100.00
6899;BME280;3488;42.616;23.350;2023-03-16T06:43:16;62123.50;;;1.19;100.00
6899;BME280;3488;42.616;23.350;2023-03-16T06:45:43;62118.88;;;1.15;100.00
6899;BME280;3488;42.616;23.350;2023-03-16T06:48:12;62114.84;;;1.13;100.00
6899;BME280;3488;42.616;23.350;2023-03-16T06:50:38;62110.22;;;1.09;100.00
6899;BME280;3488;42.616;23.350;2023-03-16T06:53:05;62114.84;;;1.13;100.00
6899;BME280;3488;42.616;23.350;2023-03-16T06:55:32;62119.41;;;1.15;100.00
6899;BME280;3488;42.616;23.350;2023-03-16T06:57:59;62130.16;;;1.26;100.00
6899;BME280;3488;42.616;23.350;2023-03-16T07:00:26;62130.28;;;1.31;100.00
6899;BME280;3488;42.616;23.350;2023-03-16T07:02:53;62142.97;;;1.39;100.00
6899;BME280;3488;42.616;23.350;2023-03-16T07:05:22;62136.38;;;1.35;100.00
6899;BME280;3488;42.616;23.350;2023-03-16T07:07:49;62139.38;;;1.35;100.00
6899;BME280;3488;42.616;23.350;2023-03-16T07:10:16;62122.47;;;1.18;100.00
6899;BME280;3488;42.616;23.350;2023-03-16T07:12:44;62126.56;;;1.23;100.00
6899;BME280;3488;42.616;23.350;2023-03-16T07:15:12;62146.56;;;1.42;100.00
6899;BME280;3488;42.616;23.350;2023-03-16T07:17:39;62171.22;;;1.66;100.00
6899;BME280;3488;42.616;23.350;2023-03-16T07:20:09;62167.69;;;1.65;100.00
6899;BME280;3488;42.616;23.350;2023-03-16T07:22:38;62172.25;;;1.67;100.00
6899;BME280;3488;42.616;23.350;2023-03-16T07:25:07;62180.50;;;1.78;100.00
6899;BME280;3488;42.616;23.350;2023-03-16T07:27:35;62181.47;;;1.76;100.00
6899;BME280;3488;42.616;23.350;2023-03-16T07:30:03;62179.03;;;1.79;100.00
6899;BME280;3488;42.616;23.350;2023-03-16T07:32:30;62198.41;;;1.93;100.00
6899;BME280;3488;42.616;23.350;2023-03-16T07:34:58;62175.88;;;1.73;100.00
6899;BME280;3488;42.616;23.350;2023-03-16T07:37:25;62184.56;;;1.79;100.00
6899;BME280;3488;42.616;23.350;2023-03-16T07:39:53;62201.44;;;1.93;100.00
6899;BME280;3488;42.616;23.350;2023-03-16T07:42:20;62200.47;;;1.95;100.00
6899;BME280;3488;42.616;23.350;2023-03-16T07:44:48;62208.63;;;2.00;100.00
6899;BME280;3488;42.616;23.350;2023-03-16T07:47:16;62211.31;;;2.08;100.00
6899;BME280;3488;42.616;23.350;2023-03-16T07:49:43;62216.31;;;2.08;100.00
6899;BME280;3488;42.616;23.350;2023-03-16T07:52:10;62217.47;;;2.14;100.00
6899;BME280;3488;42.616;23.350;2023-03-16T07:54:38;62221.91;;;2.11;100.00
6899;BME280;3488;42.616;23.350;2023-03-16T07:57:07;62240.53;;;2.34;100.00
6899;BME280;3488;42.616;23.350;2023-03-16T07:59:34;62236.97;;;2.33;100.00
6899;BME280;3488;42.616;23.350;2023-03-16T08:02:01;62257.97;;;2.51;100.00
6899;BME280;3488;42.616;23.350;2023-03-16T08:04:28;62258.03;;;2.54;100.00
6899;BME280;3488;42.616;23.350;2023-03-16T08:06:55;62254.31;;;2.45;100.00
6899;BME280;3488;42.616;23.350;2023-03-16T08:09:25;62258.94;;;2.50;100.00
6899;BME280;3488;42.616;23.350;2023-03-16T08:11:51;62276.00;;;2.71;100.00
6899;BME280;3488;42.616;23.350;2023-03-16T08:14:20;62269.34;;;2.65;100.00
6899;BME280;3488;42.616;23.350;2023-03-16T08:16:48;62266.16;;;2.57;100.00
6899;BME280;3488;42.616;23.350;2023-03-16T08:19:14;62288.84;;;2.84;100.00
6899;BME280;3488;42.616;23.350;2023-03-16T08:21:42;62310.84;;;3.00;100.00
6899;BME280;3488;42.616;23.350;2023-03-16T08:24:09;62314.03;;;3.08;100.00
6899;BME280;3488;42.616;23.350;2023-03-16T08:26:36;62294.00;;;2.89;100.00
6899;BME280;3488;42.616;23.350;2023-03-16T08:29:03;62253.97;;;2.52;100.00
6899;BME280;3488;42.616;23.350;2023-03-16T08:31:32;62272.38;;;2.65;100.00
6899;BME280;3488;42.616;23.350;2023-03-16T08:34:00;62279.56;;;2.72;100.00
6899;BME280;3488;42.616;23.350;2023-03-16T08:36:27;62274.88;;;2.65;100.00
6899;BME280;3488;42.616;23.350;2023-03-16T08:38:55;62250.78;;;2.44;100.00
6899;BME280;3488;42.616;23.350;2023-03-16T08:41:22;62248.16;;;2.39;100.00
6899;BME280;3488;42.616;23.350;2023-03-16T08:43:49;62270.75;;;2.61;100.00
6899;BME280;3488;42.616;23.350;2023-03-16T08:46:17;62280.56;;;2.73;100.00
6899;BME280;3488;42.616;23.350;2023-03-16T08:48:47;62282.06;;;2.72;100.00
6899;BME280;3488;42.616;23.350;2023-03-16T08:51:15;62294.00;;;2.89;100.00
6899;BME280;3488;42.616;23.350;2023-03-16T08:53:43;62275.44;;;2.68;100.00
6899;BME280;3488;42.616;23.350;2023-03-16T08:56:12;62289.38;;;2.84;100.00
6899;BME280;3488;42.616;23.350;2023-03-16T08:58:40;62301.63;;;2.94;100.00
6899;BME280;3488;42.616;23.350;2023-03-16T09:01:11;62321.22;;;3.15;100.00
6899;BME280;3488;42.616;23.350;2023-03-16T09:03:38;62284.75;;;2.80;100.00
6899;BME280;3488;42.616;23.350;2023-03-16T09:06:09;62305.34;;;3.02;100.00
6899;BME280;3488;42.616;23.350;2023-03-16T09:08:37;62340.19;;;3.31;99.51
6899;BME280;3488;42.616;23.350;2023-03-16T09:11:07;62339.72;;;3.33;97.59
6899;BME280;3488;42.616;23.350;2023-03-16T09:13:35;62340.66;;;3.29;96.01
6899;BME280;3488;42.616;23.350;2023-03-16T09:16:03;62328.38;;;3.20;95.35
6899;BME280;3488;42.616;23.350;2023-03-16T09:18:30;62310.91;;;3.03;98.83
6899;BME280;3488;42.616;23.350;2023-03-16T09:20:57;62309.88;;;3.02;97.67
6899;BME280;3488;42.616;23.350;2023-03-16T09:23:25;62298.00;;;2.88;100.00
6899;BME280;3488;42.616;23.350;2023-03-16T09:25:56;62301.06;;;2.91;100.00
6899;BME280;3488;42.616;23.350;2023-03-16T09:28:24;62299.13;;;2.94;100.00
6899;BME280;3488;42.616;23.350;2023-03-16T09:30:51;62296.13;;;2.93;100.00
6899;BME280;3488;42.616;23.350;2023-03-16T09:33:19;62295.47;;;2.88;99.05
6899;BME280;3488;42.616;23.350;2023-03-16T09:35:46;62296.03;;;2.91;99.44
6899;BME280;3488;42.616;23.350;2023-03-16T09:38:13;62301.13;;;2.93;99.59
6899;BME280;3488;42.616;23.350;2023-03-16T09:40:44;62306.22;;;2.96;100.00
6899;BME280;3488;42.616;23.350;2023-03-16T09:43:24;62309.34;;;3.01;100.00
6899;BME280;3488;42.616;23.350;2023-03-16T09:46:02;62308.31;;;3.00;100.00
6899;BME280;3488;42.616;23.350;2023-03-16T09:48:32;62309.34;;;3.01;99.62
6899;BME280;3488;42.616;23.350;2023-03-16T09:51:03;62301.19;;;2.96;100.00
6899;BME280;3488;42.616;23.350;2023-03-16T09:53:33;62298.50;;;2.88;100.00
6899;BME280;3488;42.616;23.350;2023-03-16T09:56:07;62258.50;;;2.52;100.00
6899;BME280;3488;42.616;23.350;2023-03-16T09:58:35;62215.91;;;2.12;100.00
6899;BME280;3488;42.616;23.350;2023-03-16T10:01:07;62240.00;;;2.33;100.00
6899;BME280;3488;42.616;23.350;2023-03-16T10:03:54;62248.28;;;2.44;100.00
6899;BME280;3488;42.616;23.350;2023-03-16T10:06:26;62268.13;;;2.56;100.00
6899;BME280;3488;42.616;23.350;2023-03-16T10:08:59;62259.50;;;2.53;100.00
6899;BME280;3488;42.616;23.350;2023-03-16T10:11:32;62252.84;;;2.46;100.00
6899;BME280;3488;42.616;23.350;2023-03-16T10:14:07;62252.31;;;2.46;100.00
6899;BME280;3488;42.616;23.350;2023-03-16T10:16:45;62230.19;;;2.21;100.00
6899;BME280;3488;42.616;23.350;2023-03-16T10:19:16;62253.88;;;2.47;100.00
6899;BME280;3488;42.616;23.350;2023-03-16T10:21:45;62272.81;;;2.63;100.00
6899;BME280;3488;42.616;23.350;2023-03-16T10:24:26;62269.34;;;2.65;100.00
6899;BME280;3488;42.616;23.350;2023-03-16T10:27:01;62291.88;;;2.84;100.00
6899;BME280;3488;42.616;23.350;2023-03-16T10:29:34;62286.66;;;2.74;100.00
6899;BME280;3488;42.616;23.350;2023-03-16T10:32:11;62260.50;;;2.51;100.00
6899;BME280;3488;42.616;23.350;2023-03-16T10:34:42;62260.50;;;2.51;100.00
6899;BME280;3488;42.616;23.350;2023-03-16T10:37:12;62283.66;;;2.76;100.00
6899;BME280;3488;42.616;23.350;2023-03-16T10:39:40;62299.66;;;2.94;100.00
6899;BME280;3488;42.616;23.350;2023-03-16T10:42:15;62309.97;;;3.07;100.00
6899;BME280;3488;42.616;23.350;2023-03-16T10:44:43;62314.06;;;3.11;100.00
6899;BME280;3488;42.616;23.350;2023-03-16T10:47:20;62317.63;;;3.12;100.00
6899;BME280;3488;42.616;23.350;2023-03-16T10:49:48;62302.63;;;2.92;100.00
6899;BME280;3488;42.616;23.350;2023-03-16T10:52:18;62305.31;;;3.00;100.00
6899;BME280;3488;42.616;23.350;2023-03-16T10:54:50;62320.72;;;3.15;100.00
6899;BME280;3488;42.616;23.350;2023-03-16T10:57:32;62334.59;;;3.28;100.00
6899;BME280;3488;42.616;23.350;2023-03-16T11:00:03;62345.28;;;3.34;100.00
6899;BME280;3488;42.616;23.350;2023-03-16T11:02:41;62343.28;;;3.34;100.00
6899;BME280;3488;42.616;23.350;2023-03-16T11:05:13;62328.38;;;3.20;99.94
6899;BME280;3488;42.616;23.350;2023-03-16T11:07:47;62289.25;;;2.79;100.00
6899;BME280;3488;42.616;23.350;2023-03-16T11:10:26;62279.59;;;2.75;100.00
6899;BME280;3488;42.616;23.350;2023-03-16T11:13:00;62301.13;;;2.93;100.00
6899;BME280;3488;42.616;23.350;2023-03-16T11:15:35;62301.59;;;2.91;100.00
6899;BME280;3488;42.616;23.350;2023-03-16T11:18:04;62301.59;;;2.91;100.00
6899;BME280;3488;42.616;23.350;2023-03-16T11:20:34;62301.63;;;2.94;100.00
6899;BME280;3488;42.616;23.350;2023-03-16T11:23:01;62310.34;;;3.00;100.00
6899;BME280;3488;42.616;23.350;2023-03-16T11:25:32;62313.53;;;3.08;100.00
6899;BME280;3488;42.616;23.350;2023-03-16T11:28:10;62324.72;;;3.14;100.00
6899;BME280;3488;42.616;23.350;2023-03-16T11:30:46;62320.19;;;3.14;100.00
6899;BME280;3488;42.616;23.350;2023-03-16T11:33:15;62307.25;;;2.97;100.00
6899;BME280;3488;42.616;23.350;2023-03-16T11:35:47;62317.47;;;3.04;100.00
6899;BME280;3488;42.616;23.350;2023-03-16T11:38:20;62303.81;;;3.01;100.00
6899;BME280;3488;42.616;23.350;2023-03-16T11:40:56;62304.78;;;2.99;100.00
6899;BME280;3488;42.616;23.350;2023-03-16T11:43:45;62298.66;;;2.96;100.00
6899;BME280;3488;42.616;23.350;2023-03-16T11:46:16;62280.06;;;2.73;100.00
6899;BME280;3488;42.616;23.350;2023-03-16T11:48:52;62273.38;;;2.66;100.00
6899;BME280;3488;42.616;23.350;2023-03-16T11:51:34;62278.59;;;2.74;100.00
6899;BME280;3488;42.616;23.350;2023-03-16T11:54:12;62295.38;;;2.83;100.00
6899;BME280;3488;42.616;23.350;2023-03-16T11:56:46;62298.50;;;2.88;100.00
6899;BME280;3488;42.616;23.350;2023-03-16T12:02:27;62298.00;;;2.88;100.00
6899;BME280;3488;42.616;23.350;2023-03-16T12:05:33;62278.59;;;2.74;100.00
6899;BME280;3488;42.616;23.350;2023-03-16T12:08:16;62276.00;;;2.71;100.00
6899;BME280;3488;42.616;23.350;2023-03-16T12:10:51;62287.31;;;2.82;100.00
6899;BME280;3488;42.616;23.350;2023-03-16T12:13:30;62284.69;;;2.77;100.00
6899;BME280;3488;42.616;23.350;2023-03-16T12:16:05;62277.03;;;2.72;100.00
6899;BME280;3488;42.616;23.350;2023-03-16T12:18:39;62275.91;;;2.66;100.00
6899;BME280;3488;42.616;23.350;2023-03-16T12:21:12;62276.00;;;2.71;100.00
6899;BME280;3488;42.616;23.350;2023-03-16T12:23:47;62260.06;;;2.56;100.00
6899;BME280;3488;42.616;23.350;2023-03-16T12:26:16;62272.31;;;2.63;100.00
6899;BME280;3488;42.616;23.350;2023-03-16T12:28:43;62240.63;;;2.39;100.00
6899;BME280;3488;42.616;23.350;2023-03-16T12:31:15;62254.84;;;2.46;100.00
6899;BME280;3488;42.616;23.350;2023-03-16T12:34:00;62254.38;;;2.48;100.00
6899;BME280;3488;42.616;23.350;2023-03-16T12:36:49;62222.03;;;2.16;100.00
6899;BME280;3488;42.616;23.350;2023-03-16T12:39:28;62222.03;;;2.16;100.00
6899;BME280;3488;42.616;23.350;2023-03-16T12:42:06;62236.91;;;2.30;100.00
6899;BME280;3488;42.616;23.350;2023-03-16T12:44:42;62242.63;;;2.38;100.00
6899;BME280;3488;42.616;23.350;2023-03-16T12:47:18;62249.75;;;2.43;100.00
6899;BME280;3488;42.616;23.350;2023-03-16T12:49:50;62247.75;;;2.44;100.00
6899;BME280;3488;42.616;23.350;2023-03-16T12:52:17;62245.53;;;2.34;100.00
6899;BME280;3488;42.616;23.350;2023-03-16T12:54:52;62221.06;;;2.17;100.00
6899;BME280;3488;42.616;23.350;2023-03-16T12:57:23;62213.25;;;2.05;100.00
6899;BME280;3488;42.616;23.350;2023-03-16T12:59:54;62185.66;;;1.83;100.00
6899;BME280;3488;42.616;23.350;2023-03-16T13:02:28;62198.47;;;1.95;100.00
6899;BME280;3488;42.616;23.350;2023-03-16T13:04:57;62200.94;;;1.93;100.00
6899;BME280;3488;42.616;23.350;2023-03-16T13:07:27;62163.00;;;1.58;100.00
6899;BME280;3488;42.616;23.350;2023-03-16T13:09:59;62187.13;;;1.82;100.00
6899;BME280;3488;42.616;23.350;2023-03-16T13:12:29;62196.41;;;1.93;100.00
6899;BME280;3488;42.616;23.350;2023-03-16T13:15:02;62185.50;;;1.78;100.00
6899;BME280;3488;42.616;23.350;2023-03-16T13:17:42;62193.28;;;1.88;100.00
6899;BME280;3488;42.616;23.350;2023-03-16T13:20:26;62194.38;;;1.91;100.00
6899;BME280;3488;42.616;23.350;2023-03-16T13:23:16;62201.50;;;1.96;100.00
6899;BME280;3488;42.616;23.350;2023-03-16T13:25:58;62201.44;;;1.93;100.00
6899;BME280;3488;42.616;23.350;2023-03-16T13:28:28;62180.97;;;1.76;100.00
6899;BME280;3488;42.616;23.350;2023-03-16T13:30:57;62190.78;;;1.88;100.00